sensor_id;sensor_type;location;lat;lon;timestamp;temperature;humidity
35381;DHT22;21486;51.916;8.378;2022-11-13T00:00:44;5.10;91.70
35381;DHT22;21486;51.916;8.378;2022-11-13T00:03:09;5.10;91.50
35381;DHT22;21486;51.916;8.378;2022-11-13T00:05:35;5.20;91.50
35381;DHT22;21486;51.916;8.378;2022-11-13T00:08:00;5.10;91.40
35381;DHT22;21486;51.916;8.378;2022-11-13T00:10:26;5.10;91.40
35381;DHT22;21486;51.916;8.378;2022-11-13T00:12:52;5.10;91.40
35381;DHT22;21486;51.916;8.378;2022-11-13T00:15:18;5.10;91.20
35381;DHT22;21486;51.916;8.378;2022-11-13T00:17:44;5.10;91.10
35381;DHT22;21486;51.916;8.378;2022-11-13T00:20:10;5.10;91.00
35381;DHT22;21486;51.916;8.378;2022-11-13T00:22:35;5.00;91.00
35381;DHT22;21486;51.916;8.378;2022-11-13T00:25:01;5.10;90.80
35381;DHT22;21486;51.916;8.378;2022-11-13T00:27:29;5.10;90.90
35381;DHT22;21486;51.916;8.378;2022-11-13T00:29:55;5.10;90.80
35381;DHT22;21486;51.916;8.378;2022-11-13T00:32:20;5.10;91.10
35381;DHT22;21486;51.916;8.378;2022-11-13T00:34:46;5.10;91.00
35381;DHT22;21486;51.916;8.378;2022-11-13T00:37:12;5.00;91.10
35381;DHT22;21486;51.916;8.378;2022-11-13T00:39:37;4.90;91.30
35381;DHT22;21486;51.916;8.378;2022-11-13T00:42:03;4.90;91.30
35381;DHT22;21486;51.916;8.378;2022-11-13T00:44:28;4.90;91.30
35381;DHT22;21486;51.916;8.378;2022-11-13T00:46:54;4.90;91.30
35381;DHT22;21486;51.916;8.378;2022-11-13T00:49:20;4.90;91.60
35381;DHT22;21486;51.916;8.378;2022-11-13T00:51:45;4.90;91.60
35381;DHT22;21486;51.916;8.378;2022-11-13T00:54:11;4.90;91.40
35381;DHT22;21486;51.916;8.378;2022-11-13T00:56:36;4.90;91.30
35381;DHT22;21486;51.916;8.378;2022-11-13T00:59:02;5.00;91.40
35381;DHT22;21486;51.916;8.378;2022-11-13T01:01:27;4.90;91.40
35381;DHT22;21486;51.916;8.378;2022-11-13T01:03:53;5.00;91.40
35381;DHT22;21486;51.916;8.378;2022-11-13T01:06:24;5.00;91.30
35381;DHT22;21486;51.916;8.378;2022-11-13T01:08:54;4.90;91.50
35381;DHT22;21486;51.916;8.378;2022-11-13T01:11:22;4.90;91.60
35381;DHT22;21486;51.916;8.378;2022-11-13T01:13:50;4.90;91.70
35381;DHT22;21486;51.916;8.378;2022-11-13T01:16:17;4.90;91.50
35381;DHT22;21486;51.916;8.378;2022-11-13T01:18:43;4.90;91.60
35381;DHT22;21486;51.916;8.378;2022-11-13T01:23:37;4.90;91.40
35381;DHT22;21486;51.916;8.378;2022-11-13T01:26:10;5.00;91.50
35381;DHT22;21486;51.916;8.378;2022-11-13T01:28:36;4.90;91.50
35381;DHT22;21486;51.916;8.378;2022-11-13T01:31:07;4.80;91.60
35381;DHT22;21486;51.916;8.378;2022-11-13T01:33:34;4.90;91.80
35381;DHT22;21486;51.916;8.378;2022-11-13T01:36:05;4.90;91.50
35381;DHT22;21486;51.916;8.378;2022-11-13T01:38:31;4.90;91.50
35381;DHT22;21486;51.916;8.378;2022-11-13T01:40:57;5.00;91.50
35381;DHT22;21486;51.916;8.378;2022-11-13T01:43:25;4.90;91.40
35381;DHT22;21486;51.916;8.378;2022-11-13T01:48:36;4.90;91.50
35381;DHT22;21486;51.916;8.378;2022-11-13T01:51:09;4.90;91.60
35381;DHT22;21486;51.916;8.378;2022-11-13T01:53:36;4.80;91.80
35381;DHT22;21486;51.916;8.378;2022-11-13T01:56:01;4.80;91.80
35381;DHT22;21486;51.916;8.378;2022-11-13T01:58:27;4.80;91.80
35381;DHT22;21486;51.916;8.378;2022-11-13T02:00:53;4.80;91.70
35381;DHT22;21486;51.916;8.378;2022-11-13T02:03:19;4.90;91.60
35381;DHT22;21486;51.916;8.378;2022-11-13T02:05:45;4.80;91.40
35381;DHT22;21486;51.916;8.378;2022-11-13T02:08:11;4.90;91.30
35381;DHT22;21486;51.916;8.378;2022-11-13T02:10:36;4.80;91.30
35381;DHT22;21486;51.916;8.378;2022-11-13T02:13:02;4.80;91.50
35381;DHT22;21486;51.916;8.378;2022-11-13T02:15:31;4.80;91.50
35381;DHT22;21486;51.916;8.378;2022-11-13T02:17:59;4.80;91.50
35381;DHT22;21486;51.916;8.378;2022-11-13T02:20:59;4.80;91.40
35381;DHT22;21486;51.916;8.378;2022-11-13T02:26:11;4.80;91.70
35381;DHT22;21486;51.916;8.378;2022-11-13T02:28:36;4.90;91.70
35381;DHT22;21486;51.916;8.378;2022-11-13T02:31:10;4.80;91.60
35381;DHT22;21486;51.916;8.378;2022-11-13T02:33:36;4.90;91.50
35381;DHT22;21486;51.916;8.378;2022-11-13T02:36:02;4.80;91.60
35381;DHT22;21486;51.916;8.378;2022-11-13T02:38:28;4.90;91.60
35381;DHT22;21486;51.916;8.378;2022-11-13T02:40:53;4.90;91.40
35381;DHT22;21486;51.916;8.378;2022-11-13T02:43:19;4.80;91.40
35381;DHT22;21486;51.916;8.378;2022-11-13T02:45:44;4.90;91.40
35381;DHT22;21486;51.916;8.378;2022-11-13T02:48:10;4.90;91.50
35381;DHT22;21486;51.916;8.378;2022-11-13T02:50:36;4.90;91.30
35381;DHT22;21486;51.916;8.378;2022-11-13T02:53:02;4.90;91.30
35381;DHT22;21486;51.916;8.378;2022-11-13T02:55:28;4.90;91.30
35381;DHT22;21486;51.916;8.378;2022-11-13T02:57:54;4.90;91.10
35381;DHT22;21486;51.916;8.378;2022-11-13T03:00:19;4.90;91.20
35381;DHT22;21486;51.916;8.378;2022-11-13T03:02:45;4.90;91.10
35381;DHT22;21486;51.916;8.378;2022-11-13T03:05:10;5.00;90.90
35381;DHT22;21486;51.916;8.378;2022-11-13T03:07:36;5.00;90.80
35381;DHT22;21486;51.916;8.378;2022-11-13T03:10:02;4.90;90.70
35381;DHT22;21486;51.916;8.378;2022-11-13T03:12:28;4.90;90.60
35381;DHT22;21486;51.916;8.378;2022-11-13T03:14:53;4.90;90.50
35381;DHT22;21486;51.916;8.378;2022-11-13T03:17:19;4.90;90.60
35381;DHT22;21486;51.916;8.378;2022-11-13T03:19:44;4.80;90.60
35381;DHT22;21486;51.916;8.378;2022-11-13T03:22:10;4.80;90.50
35381;DHT22;21486;51.916;8.378;2022-11-13T03:24:35;4.80;90.60
35381;DHT22;21486;51.916;8.378;2022-11-13T03:27:01;4.80;90.50
35381;DHT22;21486;51.916;8.378;2022-11-13T03:29:26;4.80;90.40
35381;DHT22;21486;51.916;8.378;2022-11-13T03:31:52;4.80;90.40
35381;DHT22;21486;51.916;8.378;2022-11-13T03:34:17;4.70;90.40
35381;DHT22;21486;51.916;8.378;2022-11-13T03:36:43;4.80;90.50
35381;DHT22;21486;51.916;8.378;2022-11-13T03:39:08;4.70;90.50
35381;DHT22;21486;51.916;8.378;2022-11-13T03:41:34;4.70;90.70
35381;DHT22;21486;51.916;8.378;2022-11-13T03:43:59;4.60;90.50
35381;DHT22;21486;51.916;8.378;2022-11-13T03:46:25;4.60;90.30
35381;DHT22;21486;51.916;8.378;2022-11-13T03:48:51;4.60;90.20
35381;DHT22;21486;51.916;8.378;2022-11-13T03:51:16;4.60;90.10
35381;DHT22;21486;51.916;8.378;2022-11-13T03:53:42;4.60;90.20
35381;DHT22;21486;51.916;8.378;2022-11-13T03:56:07;4.50;90.30
35381;DHT22;21486;51.916;8.378;2022-11-13T03:58:33;4.50;90.40
35381;DHT22;21486;51.916;8.378;2022-11-13T04:00:58;4.40;90.50
35381;DHT22;21486;51.916;8.378;2022-11-13T04:03:24;4.40;90.30
35381;DHT22;21486;51.916;8.378;2022-11-13T04:05:50;4.50;90.20
35381;DHT22;21486;51.916;8.378;2022-11-13T04:08:16;4.40;90.40
35381;DHT22;21486;51.916;8.378;2022-11-13T04:10:42;4.40;90.40
35381;DHT22;21486;51.916;8.378;2022-11-13T04:13:08;4.40;90.30
35381;DHT22;21486;51.916;8.378;2022-11-13T04:15:34;4.40;90.30
35381;DHT22;21486;51.916;8.378;2022-11-13T04:18:00;4.30;90.10
35381;DHT22;21486;51.916;8.378;2022-11-13T04:20:26;4.30;90.20
35381;DHT22;21486;51.916;8.378;2022-11-13T04:22:53;4.40;90.10
35381;DHT22;21486;51.916;8.378;2022-11-13T04:25:18;4.40;90.10
35381;DHT22;21486;51.916;8.378;2022-11-13T04:27:44;4.40;89.70
35381;DHT22;21486;51.916;8.378;2022-11-13T04:30:10;4.30;89.60
35381;DHT22;21486;51.916;8.378;2022-11-13T04:32:36;4.30;89.60
35381;DHT22;21486;51.916;8.378;2022-11-13T04:35:01;4.30;89.50
35381;DHT22;21486;51.916;8.378;2022-11-13T04:37:27;4.40;89.10
35381;DHT22;21486;51.916;8.378;2022-11-13T04:39:52;4.40;89.00
35381;DHT22;21486;51.916;8.378;2022-11-13T04:42:18;4.30;88.90
35381;DHT22;21486;51.916;8.378;2022-11-13T04:45:02;4.30;89.60
35381;DHT22;21486;51.916;8.378;2022-11-13T04:47:28;4.30;89.10
35381;DHT22;21486;51.916;8.378;2022-11-13T04:49:54;4.30;88.90
35381;DHT22;21486;51.916;8.378;2022-11-13T04:52:20;4.30;88.90
35381;DHT22;21486;51.916;8.378;2022-11-13T04:54:45;4.40;88.80
35381;DHT22;21486;51.916;8.378;2022-11-13T04:57:11;4.30;88.70
35381;DHT22;21486;51.916;8.378;2022-11-13T04:59:36;4.30;89.10
35381;DHT22;21486;51.916;8.378;2022-11-13T05:02:02;4.30;89.30
35381;DHT22;21486;51.916;8.378;2022-11-13T05:04:28;4.30;89.40
35381;DHT22;21486;51.916;8.378;2022-11-13T05:06:53;4.30;89.20
35381;DHT22;21486;51.916;8.378;2022-11-13T05:09:19;4.30;88.50
35381;DHT22;21486;51.916;8.378;2022-11-13T05:11:44;4.50;83.90
35381;DHT22;21486;51.916;8.378;2022-11-13T05:14:11;4.80;81.30
35381;DHT22;21486;51.916;8.378;2022-11-13T05:16:37;4.90;82.30
35381;DHT22;21486;51.916;8.378;2022-11-13T05:19:03;4.90;83.00
35381;DHT22;21486;51.916;8.378;2022-11-13T05:21:40;5.00;81.80
35381;DHT22;21486;51.916;8.378;2022-11-13T05:24:09;5.10;79.70
35381;DHT22;21486;51.916;8.378;2022-11-13T05:26:36;5.30;76.70
35381;DHT22;21486;51.916;8.378;2022-11-13T05:29:02;5.50;75.60
35381;DHT22;21486;51.916;8.378;2022-11-13T05:31:28;5.70;73.80
35381;DHT22;21486;51.916;8.378;2022-11-13T05:33:53;5.80;73.30
35381;DHT22;21486;51.916;8.378;2022-11-13T05:36:20;5.90;73.10
35381;DHT22;21486;51.916;8.378;2022-11-13T05:38:45;6.00;72.50
35381;DHT22;21486;51.916;8.378;2022-11-13T05:41:13;6.10;72.20
35381;DHT22;21486;51.916;8.378;2022-11-13T05:43:40;6.20;72.10
35381;DHT22;21486;51.916;8.378;2022-11-13T05:46:12;6.20;72.20
35381;DHT22;21486;51.916;8.378;2022-11-13T05:48:38;6.10;72.50
35381;DHT22;21486;51.916;8.378;2022-11-13T05:51:24;6.00;73.50
35381;DHT22;21486;51.916;8.378;2022-11-13T05:53:50;6.00;74.80
35381;DHT22;21486;51.916;8.378;2022-11-13T05:56:24;5.80;77.00
35381;DHT22;21486;51.916;8.378;2022-11-13T05:58:52;5.60;78.20
35381;DHT22;21486;51.916;8.378;2022-11-13T06:01:28;5.50;79.40
35381;DHT22;21486;51.916;8.378;2022-11-13T06:03:55;5.20;80.50
35381;DHT22;21486;51.916;8.378;2022-11-13T06:06:22;5.10;81.50
35381;DHT22;21486;51.916;8.378;2022-11-13T06:08:49;5.00;82.50
35381;DHT22;21486;51.916;8.378;2022-11-13T06:11:18;4.90;83.10
35381;DHT22;21486;51.916;8.378;2022-11-13T06:13:45;4.80;83.70
35381;DHT22;21486;51.916;8.378;2022-11-13T06:16:13;4.70;84.00
35381;DHT22;21486;51.916;8.378;2022-11-13T06:18:40;4.70;84.50
35381;DHT22;21486;51.916;8.378;2022-11-13T06:21:27;4.70;84.90
35381;DHT22;21486;51.916;8.378;2022-11-13T06:23:53;4.60;85.10
35381;DHT22;21486;51.916;8.378;2022-11-13T06:26:22;4.60;85.20
35381;DHT22;21486;51.916;8.378;2022-11-13T06:28:48;4.50;85.50
35381;DHT22;21486;51.916;8.378;2022-11-13T06:31:17;4.50;86.30
35381;DHT22;21486;51.916;8.378;2022-11-13T06:33:43;4.50;86.60
35381;DHT22;21486;51.916;8.378;2022-11-13T06:36:17;4.40;86.40
35381;DHT22;21486;51.916;8.378;2022-11-13T06:38:44;4.40;86.60
35381;DHT22;21486;51.916;8.378;2022-11-13T06:41:12;4.40;86.60
35381;DHT22;21486;51.916;8.378;2022-11-13T06:43:38;4.30;86.70
35381;DHT22;21486;51.916;8.378;2022-11-13T06:46:05;4.30;86.50
35381;DHT22;21486;51.916;8.378;2022-11-13T06:48:32;4.30;86.70
35381;DHT22;21486;51.916;8.378;2022-11-13T06:51:02;4.30;86.50
35381;DHT22;21486;51.916;8.378;2022-11-13T06:53:29;4.20;86.00
35381;DHT22;21486;51.916;8.378;2022-11-13T06:55:55;4.20;86.30
35381;DHT22;21486;51.916;8.378;2022-11-13T06:58:21;4.30;86.40
35381;DHT22;21486;51.916;8.378;2022-11-13T07:00:47;4.20;86.80
35381;DHT22;21486;51.916;8.378;2022-11-13T07:03:21;4.10;87.00
35381;DHT22;21486;51.916;8.378;2022-11-13T07:05:47;4.10;87.30
35381;DHT22;21486;51.916;8.378;2022-11-13T07:08:13;4.10;87.20
35381;DHT22;21486;51.916;8.378;2022-11-13T07:10:40;4.10;87.50
35381;DHT22;21486;51.916;8.378;2022-11-13T07:13:06;4.10;87.40
35381;DHT22;21486;51.916;8.378;2022-11-13T07:15:36;4.20;87.80
35381;DHT22;21486;51.916;8.378;2022-11-13T07:18:02;4.20;87.70
35381;DHT22;21486;51.916;8.378;2022-11-13T07:20:29;4.20;87.20
35381;DHT22;21486;51.916;8.378;2022-11-13T07:22:56;4.10;87.50
35381;DHT22;21486;51.916;8.378;2022-11-13T07:25:22;4.20;87.60
35381;DHT22;21486;51.916;8.378;2022-11-13T07:27:47;4.20;87.60
35381;DHT22;21486;51.916;8.378;2022-11-13T07:30:13;4.40;87.20
35381;DHT22;21486;51.916;8.378;2022-11-13T07:32:39;4.40;83.40
35381;DHT22;21486;51.916;8.378;2022-11-13T07:35:05;4.60;83.70
35381;DHT22;21486;51.916;8.378;2022-11-13T07:37:30;4.60;84.10
35381;DHT22;21486;51.916;8.378;2022-11-13T07:39:56;4.70;83.90
35381;DHT22;21486;51.916;8.378;2022-11-13T07:42:21;4.70;84.00
35381;DHT22;21486;51.916;8.378;2022-11-13T07:44:47;4.70;84.50
35381;DHT22;21486;51.916;8.378;2022-11-13T07:47:13;4.70;84.90
35381;DHT22;21486;51.916;8.378;2022-11-13T07:49:38;4.90;85.30
35381;DHT22;21486;51.916;8.378;2022-11-13T07:52:04;4.90;84.90
35381;DHT22;21486;51.916;8.378;2022-11-13T07:54:30;5.00;85.30
35381;DHT22;21486;51.916;8.378;2022-11-13T07:56:55;5.20;84.80
35381;DHT22;21486;51.916;8.378;2022-11-13T07:59:21;5.30;83.60
35381;DHT22;21486;51.916;8.378;2022-11-13T08:01:46;5.40;80.50
35381;DHT22;21486;51.916;8.378;2022-11-13T08:04:12;5.70;81.10
35381;DHT22;21486;51.916;8.378;2022-11-13T08:06:38;5.80;79.50
35381;DHT22;21486;51.916;8.378;2022-11-13T08:09:04;6.00;79.20
35381;DHT22;21486;51.916;8.378;2022-11-13T08:11:29;6.20;78.00
35381;DHT22;21486;51.916;8.378;2022-11-13T08:13:55;6.40;77.70
35381;DHT22;21486;51.916;8.378;2022-11-13T08:16:21;6.60;77.30
35381;DHT22;21486;51.916;8.378;2022-11-13T08:18:48;6.60;77.20
35381;DHT22;21486;51.916;8.378;2022-11-13T08:21:14;6.80;76.90
35381;DHT22;21486;51.916;8.378;2022-11-13T08:23:40;7.00;75.60
35381;DHT22;21486;51.916;8.378;2022-11-13T08:26:07;7.20;74.00
35381;DHT22;21486;51.916;8.378;2022-11-13T08:28:34;7.40;74.80
35381;DHT22;21486;51.916;8.378;2022-11-13T08:31:00;7.70;72.50
35381;DHT22;21486;51.916;8.378;2022-11-13T08:33:26;8.00;71.90
35381;DHT22;21486;51.916;8.378;2022-11-13T08:35:57;8.30;70.00
35381;DHT22;21486;51.916;8.378;2022-11-13T08:38:23;8.90;66.10
35381;DHT22;21486;51.916;8.378;2022-11-13T08:40:49;9.30;66.40
35381;DHT22;21486;51.916;8.378;2022-11-13T08:43:15;9.90;62.30
35381;DHT22;21486;51.916;8.378;2022-11-13T08:45:40;10.50;61.00
35381;DHT22;21486;51.916;8.378;2022-11-13T08:48:06;11.20;58.90
35381;DHT22;21486;51.916;8.378;2022-11-13T08:50:32;11.80;57.50
35381;DHT22;21486;51.916;8.378;2022-11-13T08:52:59;12.30;56.40
35381;DHT22;21486;51.916;8.378;2022-11-13T08:55:25;12.80;56.10
35381;DHT22;21486;51.916;8.378;2022-11-13T08:57:52;13.30;52.80
35381;DHT22;21486;51.916;8.378;2022-11-13T09:00:18;13.70;50.80
35381;DHT22;21486;51.916;8.378;2022-11-13T09:02:44;14.20;49.90
35381;DHT22;21486;51.916;8.378;2022-11-13T09:05:10;14.70;48.40
35381;DHT22;21486;51.916;8.378;2022-11-13T09:07:35;15.10;46.50
35381;DHT22;21486;51.916;8.378;2022-11-13T09:10:01;15.40;45.10
35381;DHT22;21486;51.916;8.378;2022-11-13T09:12:27;15.70;42.30
35381;DHT22;21486;51.916;8.378;2022-11-13T09:14:52;16.00;43.50
35381;DHT22;21486;51.916;8.378;2022-11-13T09:17:18;16.40;44.00
35381;DHT22;21486;51.916;8.378;2022-11-13T09:19:44;16.80;42.10
35381;DHT22;21486;51.916;8.378;2022-11-13T09:22:09;17.10;39.50
35381;DHT22;21486;51.916;8.378;2022-11-13T09:24:35;17.00;39.80
35381;DHT22;21486;51.916;8.378;2022-11-13T09:27:01;17.10;40.20
35381;DHT22;21486;51.916;8.378;2022-11-13T09:29:27;17.20;39.00
35381;DHT22;21486;51.916;8.378;2022-11-13T09:31:53;17.30;40.10
35381;DHT22;21486;51.916;8.378;2022-11-13T09:34:20;17.80;40.00
35381;DHT22;21486;51.916;8.378;2022-11-13T09:36:45;18.20;38.70
35381;DHT22;21486;51.916;8.378;2022-11-13T09:39:11;18.60;37.80
35381;DHT22;21486;51.916;8.378;2022-11-13T09:44:17;19.50;37.10
35381;DHT22;21486;51.916;8.378;2022-11-13T09:46:56;19.10;37.10
35381;DHT22;21486;51.916;8.378;2022-11-13T09:49:33;19.60;36.60
35381;DHT22;21486;51.916;8.378;2022-11-13T09:52:11;20.10;34.90
35381;DHT22;21486;51.916;8.378;2022-11-13T09:54:38;20.40;34.00
35381;DHT22;21486;51.916;8.378;2022-11-13T09:57:25;20.70;34.20
35381;DHT22;21486;51.916;8.378;2022-11-13T10:05:41;20.70;33.80
35381;DHT22;21486;51.916;8.378;2022-11-13T10:08:43;20.70;33.60
35381;DHT22;21486;51.916;8.378;2022-11-13T10:13:48;21.10;33.00
35381;DHT22;21486;51.916;8.378;2022-11-13T10:16:52;21.30;33.80
35381;DHT22;21486;51.916;8.378;2022-11-13T10:19:22;21.60;32.00
35381;DHT22;21486;51.916;8.378;2022-11-13T10:21:55;21.40;33.30
35381;DHT22;21486;51.916;8.378;2022-11-13T10:24:38;21.60;32.40
35381;DHT22;21486;51.916;8.378;2022-11-13T10:27:08;21.50;33.00
35381;DHT22;21486;51.916;8.378;2022-11-13T10:29:34;21.60;32.50
35381;DHT22;21486;51.916;8.378;2022-11-13T10:32:22;21.40;33.80
35381;DHT22;21486;51.916;8.378;2022-11-13T10:34:59;21.10;33.60
35381;DHT22;21486;51.916;8.378;2022-11-13T10:39:51;21.60;33.20
35381;DHT22;21486;51.916;8.378;2022-11-13T10:42:27;21.90;32.70
35381;DHT22;21486;51.916;8.378;2022-11-13T10:44:56;22.60;32.80
35381;DHT22;21486;51.916;8.378;2022-11-13T10:47:24;22.90;30.90
35381;DHT22;21486;51.916;8.378;2022-11-13T10:49:51;22.90;31.40
35381;DHT22;21486;51.916;8.378;2022-11-13T10:52:23;22.90;31.20
35381;DHT22;21486;51.916;8.378;2022-11-13T10:54:50;22.80;31.10
35381;DHT22;21486;51.916;8.378;2022-11-13T10:57:30;22.80;31.40
35381;DHT22;21486;51.916;8.378;2022-11-13T10:59:59;23.10;30.70
35381;DHT22;21486;51.916;8.378;2022-11-13T11:02:26;23.10;31.70
35381;DHT22;21486;51.916;8.378;2022-11-13T11:05:05;23.30;36.80
35381;DHT22;21486;51.916;8.378;2022-11-13T11:07:38;23.30;38.50
35381;DHT22;21486;51.916;8.378;2022-11-13T11:13:00;22.90;39.20
35381;DHT22;21486;51.916;8.378;2022-11-13T11:15:43;22.60;39.20
35381;DHT22;21486;51.916;8.378;2022-11-13T11:20:55;22.10;40.20
35381;DHT22;21486;51.916;8.378;2022-11-13T11:23:32;21.80;40.90
35381;DHT22;21486;51.916;8.378;2022-11-13T11:28:36;21.50;41.60
35381;DHT22;21486;51.916;8.378;2022-11-13T11:31:22;21.30;41.90
35381;DHT22;21486;51.916;8.378;2022-11-13T11:34:43;21.50;41.80
35381;DHT22;21486;51.916;8.378;2022-11-13T11:39:25;21.00;42.70
35381;DHT22;21486;51.916;8.378;2022-11-13T11:42:21;20.70;43.20
35381;DHT22;21486;51.916;8.378;2022-11-13T11:45:03;20.30;43.90
35381;DHT22;21486;51.916;8.378;2022-11-13T11:47:33;19.80;45.20
35381;DHT22;21486;51.916;8.378;2022-11-13T11:49:59;19.40;46.50
35381;DHT22;21486;51.916;8.378;2022-11-13T11:52:34;18.90;47.60
35381;DHT22;21486;51.916;8.378;2022-11-13T12:00:46;17.70;50.90
35381;DHT22;21486;51.916;8.378;2022-11-13T12:06:16;17.30;51.30
35381;DHT22;21486;51.916;8.378;2022-11-13T12:11:47;16.90;52.90
35381;DHT22;21486;51.916;8.378;2022-11-13T12:24:52;16.70;53.00
35381;DHT22;21486;51.916;8.378;2022-11-13T12:27:53;16.70;51.40
35381;DHT22;21486;51.916;8.378;2022-11-13T12:30:31;16.80;52.50
35381;DHT22;21486;51.916;8.378;2022-11-13T12:33:02;16.70;52.80
35381;DHT22;21486;51.916;8.378;2022-11-13T12:35:30;16.70;52.20
35381;DHT22;21486;51.916;8.378;2022-11-13T12:41:07;16.60;52.10
35381;DHT22;21486;51.916;8.378;2022-11-13T12:46:08;16.60;52.40
35381;DHT22;21486;51.916;8.378;2022-11-13T12:48:39;16.70;51.10
35381;DHT22;21486;51.916;8.378;2022-11-13T12:51:08;16.60;51.50
35381;DHT22;21486;51.916;8.378;2022-11-13T12:56:16;16.70;49.80
35381;DHT22;21486;51.916;8.378;2022-11-13T12:58:59;16.70;49.40
35381;DHT22;21486;51.916;8.378;2022-11-13T13:01:27;16.70;49.50
35381;DHT22;21486;51.916;8.378;2022-11-13T13:15:29;17.10;43.30
35381;DHT22;21486;51.916;8.378;2022-11-13T13:18:09;17.30;43.00
35381;DHT22;21486;51.916;8.378;2022-11-13T13:20:38;17.50;42.70
35381;DHT22;21486;51.916;8.378;2022-11-13T13:23:05;17.60;42.30
35381;DHT22;21486;51.916;8.378;2022-11-13T13:25:35;17.90;41.30
35381;DHT22;21486;51.916;8.378;2022-11-13T13:30:53;18.30;40.50
35381;DHT22;21486;51.916;8.378;2022-11-13T13:38:54;18.70;40.50
35381;DHT22;21486;51.916;8.378;2022-11-13T13:44:23;18.50;39.80
35381;DHT22;21486;51.916;8.378;2022-11-13T13:46:51;18.10;40.00
35381;DHT22;21486;51.916;8.378;2022-11-13T13:49:22;17.90;39.50
35381;DHT22;21486;51.916;8.378;2022-11-13T13:51:51;17.60;39.80
35381;DHT22;21486;51.916;8.378;2022-11-13T13:54:21;17.40;40.00
35381;DHT22;21486;51.916;8.378;2022-11-13T13:56:48;17.20;40.10
35381;DHT22;21486;51.916;8.378;2022-11-13T13:59:18;17.10;40.40
35381;DHT22;21486;51.916;8.378;2022-11-13T14:01:59;17.00;40.30
35381;DHT22;21486;51.916;8.378;2022-11-13T14:04:27;16.90;40.80
35381;DHT22;21486;51.916;8.378;2022-11-13T14:06:58;16.80;40.30
35381;DHT22;21486;51.916;8.378;2022-11-13T14:09:28;16.70;39.70
35381;DHT22;21486;51.916;8.378;2022-11-13T14:12:02;16.70;40.50
35381;DHT22;21486;51.916;8.378;2022-11-13T14:14:28;16.60;41.20
35381;DHT22;21486;51.916;8.378;2022-11-13T14:16:57;16.50;40.50
35381;DHT22;21486;51.916;8.378;2022-11-13T14:19:25;16.50;41.00
35381;DHT22;21486;51.916;8.378;2022-11-13T14:21:59;16.50;40.80
35381;DHT22;21486;51.916;8.378;2022-11-13T14:24:35;16.50;41.50
35381;DHT22;21486;51.916;8.378;2022-11-13T14:27:04;16.40;41.80
35381;DHT22;21486;51.916;8.378;2022-11-13T14:32:06;16.10;42.70
35381;DHT22;21486;51.916;8.378;2022-11-13T14:34:35;16.00;42.50
35381;DHT22;21486;51.916;8.378;2022-11-13T14:39:59;15.90;42.70
35381;DHT22;21486;51.916;8.378;2022-11-13T14:42:28;15.90;42.60
35381;DHT22;21486;51.916;8.378;2022-11-13T14:45:25;15.80;43.20
35381;DHT22;21486;51.916;8.378;2022-11-13T14:47:58;15.70;43.60
35381;DHT22;21486;51.916;8.378;2022-11-13T14:50:35;15.60;43.60
35381;DHT22;21486;51.916;8.378;2022-11-13T14:53:06;15.50;44.10
35381;DHT22;21486;51.916;8.378;2022-11-13T14:55:48;15.30;44.70
35381;DHT22;21486;51.916;8.378;2022-11-13T14:58:14;15.20;45.50
35381;DHT22;21486;51.916;8.378;2022-11-13T15:00:50;15.00;45.60
35381;DHT22;21486;51.916;8.378;2022-11-13T15:03:15;14.90;45.80
35381;DHT22;21486;51.916;8.378;2022-11-13T15:05:41;14.80;46.10
35381;DHT22;21486;51.916;8.378;2022-11-13T15:08:12;14.70;46.50
35381;DHT22;21486;51.916;8.378;2022-11-13T15:10:38;14.60;47.30
35381;DHT22;21486;51.916;8.378;2022-11-13T15:13:15;14.40;48.10
35381;DHT22;21486;51.916;8.378;2022-11-13T15:15:41;14.30;48.90
35381;DHT22;21486;51.916;8.378;2022-11-13T15:18:14;14.10;49.70
35381;DHT22;21486;51.916;8.378;2022-11-13T15:20:41;13.90;50.40
35381;DHT22;21486;51.916;8.378;2022-11-13T15:23:08;13.80;51.30
35381;DHT22;21486;51.916;8.378;2022-11-13T15:25:35;13.60;51.70
35381;DHT22;21486;51.916;8.378;2022-11-13T15:28:00;13.50;52.80
35381;DHT22;21486;51.916;8.378;2022-11-13T15:30:26;13.30;53.20
35381;DHT22;21486;51.916;8.378;2022-11-13T15:32:51;13.20;52.80
35381;DHT22;21486;51.916;8.378;2022-11-13T15:35:19;13.40;52.10
35381;DHT22;21486;51.916;8.378;2022-11-13T15:37:45;13.60;51.70
35381;DHT22;21486;51.916;8.378;2022-11-13T15:40:12;13.70;51.50
35381;DHT22;21486;51.916;8.378;2022-11-13T15:42:38;13.90;50.90
35381;DHT22;21486;51.916;8.378;2022-11-13T15:45:04;13.90;51.00
35381;DHT22;21486;51.916;8.378;2022-11-13T15:47:32;13.80;51.20
35381;DHT22;21486;51.916;8.378;2022-11-13T15:50:03;13.80;51.50
35381;DHT22;21486;51.916;8.378;2022-11-13T15:52:32;13.60;51.90
35381;DHT22;21486;51.916;8.378;2022-11-13T15:55:00;13.60;52.40
35381;DHT22;21486;51.916;8.378;2022-11-13T15:57:28;13.40;52.70
35381;DHT22;21486;51.916;8.378;2022-11-13T15:59:54;13.30;53.20
35381;DHT22;21486;51.916;8.378;2022-11-13T16:02:19;13.20;53.30
35381;DHT22;21486;51.916;8.378;2022-11-13T16:04:46;13.10;54.00
35381;DHT22;21486;51.916;8.378;2022-11-13T16:07:15;12.90;54.80
35381;DHT22;21486;51.916;8.378;2022-11-13T16:09:42;12.70;56.60
35381;DHT22;21486;51.916;8.378;2022-11-13T16:12:09;12.50;55.40
35381;DHT22;21486;51.916;8.378;2022-11-13T16:14:35;12.40;56.60
35381;DHT22;21486;51.916;8.378;2022-11-13T16:17:01;12.40;55.80
35381;DHT22;21486;51.916;8.378;2022-11-13T16:19:26;12.20;56.90
35381;DHT22;21486;51.916;8.378;2022-11-13T16:21:52;12.30;56.50
35381;DHT22;21486;51.916;8.378;2022-11-13T16:24:18;12.20;57.00
35381;DHT22;21486;51.916;8.378;2022-11-13T16:26:48;12.10;56.90
35381;DHT22;21486;51.916;8.378;2022-11-13T16:29:20;12.00;57.20
35381;DHT22;21486;51.916;8.378;2022-11-13T16:31:46;11.90;57.40
35381;DHT22;21486;51.916;8.378;2022-11-13T16:34:11;11.80;57.50
35381;DHT22;21486;51.916;8.378;2022-11-13T16:36:37;11.80;57.90
35381;DHT22;21486;51.916;8.378;2022-11-13T16:39:03;11.70;58.80
35381;DHT22;21486;51.916;8.378;2022-11-13T16:41:32;11.50;58.90
35381;DHT22;21486;51.916;8.378;2022-11-13T16:43:57;11.40;59.80
35381;DHT22;21486;51.916;8.378;2022-11-13T16:46:34;11.30;59.60
35381;DHT22;21486;51.916;8.378;2022-11-13T16:49:01;11.20;60.70
35381;DHT22;21486;51.916;8.378;2022-11-13T16:51:27;11.10;61.10
35381;DHT22;21486;51.916;8.378;2022-11-13T16:53:52;10.90;61.50
35381;DHT22;21486;51.916;8.378;2022-11-13T16:56:24;10.80;61.30
35381;DHT22;21486;51.916;8.378;2022-11-13T16:58:53;10.70;62.40
35381;DHT22;21486;51.916;8.378;2022-11-13T17:01:20;10.60;63.00
35381;DHT22;21486;51.916;8.378;2022-11-13T17:03:46;10.50;63.80
35381;DHT22;21486;51.916;8.378;2022-11-13T17:06:42;10.40;64.00
35381;DHT22;21486;51.916;8.378;2022-11-13T17:09:08;10.20;64.00
35381;DHT22;21486;51.916;8.378;2022-11-13T17:11:34;10.10;64.70
35381;DHT22;21486;51.916;8.378;2022-11-13T17:14:01;10.00;64.70
35381;DHT22;21486;51.916;8.378;2022-11-13T17:16:28;9.90;65.20
35381;DHT22;21486;51.916;8.378;2022-11-13T17:18:54;9.80;65.60